Terminal Aerodrome Forecast
Issued by NWS Bismarck, ND

Home | Current Version | Previous Version | Text Only | Print | Product List | Glossary On
Versions: 1 2 3 4 5 6 7 8 9 10 11 12 13 14 15 16 17 18 19
000
FTUS43 KBIS 210127 AAB
TAFBIS
TAF AMD
KBIS 210127Z 2101/2124 15007KT P6SM SKC
     FM210600 16008KT P6SM FEW110 SCT250 WS020/19035KT
     FM211000 16009KT P6SM BKN110 WS020/19050KT
     FM211400 17020G30KT P6SM FEW120 SCT150
     FM211800 24011KT P6SM FEW300
     FM212100 30014KT P6SM SKC=

USA.gov is the U.S. government's official web portal to all federal, state and local government web resources and services.